Time;durP1;ratioP1;P1;durP2;ratioP2;P2;SDS_P1;SDS_P2;PMS_P1;PMS_P2;Temp;Humidity;BMP_temperature;BMP_pressure;BME280_temperature;BME280_humidity;BME280_pressure;Samples;Min_cycle;Max_cycle;Signal;HPM_P1;HPM_P2
2022/04/28 00:00:04;;;;;;;6.80;3.05;;;9.40;55.10;;;;;;4751565;30;20232;-73
2022/04/28 00:02:30;;;;;;;6.75;2.95;;;9.30;55.10;;;;;;4752597;30;20055;-74
2022/04/28 00:04:56;;;;;;;8.15;2.90;;;9.30;55.20;;;;;;4752446;30;20049;-74
2022/04/28 00:07:22;;;;;;;5.78;2.90;;;9.20;55.20;;;;;;4751409;30;20048;-74
2022/04/28 00:09:47;;;;;;;5.53;2.90;;;9.20;55.30;;;;;;4752551;30;20056;-74
2022/04/28 00:12:13;;;;;;;4.50;2.90;;;9.20;55.30;;;;;;4752508;30;20072;-74
2022/04/28 00:14:39;;;;;;;4.88;3.10;;;9.10;55.40;;;;;;4756001;30;20040;-74
2022/04/28 00:17:04;;;;;;;7.35;3.30;;;9.20;55.50;;;;;;4770741;30;20052;-74
2022/04/28 00:19:30;;;;;;;7.15;3.50;;;9.10;55.50;;;;;;4773201;30;20075;-74
2022/04/28 00:21:56;;;;;;;9.13;4.07;;;9.10;55.50;;;;;;4772210;30;20489;-74
2022/04/28 00:24:21;;;;;;;8.27;3.53;;;9.10;55.60;;;;;;4771835;30;20070;-74
2022/04/28 00:26:47;;;;;;;5.53;3.08;;;9.00;55.60;;;;;;4772171;30;20434;-74
2022/04/28 00:29:13;;;;;;;5.70;3.15;;;9.00;55.60;;;;;;4772312;30;20051;-74
2022/04/28 00:31:38;;;;;;;6.30;3.05;;;9.00;55.60;;;;;;4771936;30;20060;-75
2022/04/28 00:34:04;;;;;;;4.60;2.97;;;8.90;55.60;;;;;;4773085;30;20052;-75
2022/04/28 00:36:30;;;;;;;6.25;2.80;;;8.90;55.60;;;;;;4772517;30;20052;-75
2022/04/28 00:38:55;;;;;;;4.85;2.65;;;8.90;55.60;;;;;;4771871;30;20509;-73
2022/04/28 00:41:21;;;;;;;5.57;2.88;;;8.80;55.50;;;;;;4771875;30;20044;-73
2022/04/28 00:43:52;;;;;;;5.55;2.60;;;8.80;55.50;;;;;;4771604;30;20051;-73
2022/04/28 00:46:18;;;;;;;5.57;2.85;;;8.80;55.50;;;;;;4771558;30;20618;-73
2022/04/28 00:51:30;;;;;;;5.60;3.05;;;8.80;55.60;;;;;;4772962;30;20066;-73
2022/04/28 00:53:58;;;;;;;5.22;3.17;;;8.70;55.60;;;;;;4772829;30;20048;-73
2022/04/28 00:56:27;;;;;;;6.15;3.30;;;8.70;55.60;;;;;;4772204;30;20125;-73
2022/04/28 00:58:55;;;;;;;4.90;3.03;;;8.70;55.70;;;;;;4772630;30;20154;-73
2022/04/28 01:01:20;;;;;;;3.38;2.42;;;8.60;55.70;;;;;;4772651;30;20135;-74
2022/04/28 01:03:46;;;;;;;5.65;2.80;;;8.60;55.70;;;;;;4772548;30;20086;-73
2022/04/28 01:06:12;;;;;;;7.45;3.33;;;8.60;55.80;;;;;;4772796;30;20059;-74
2022/04/28 01:08:39;;;;;;;4.20;2.80;;;8.50;55.90;;;;;;4772821;30;20044;-75
2022/04/28 01:11:05;;;;;;;4.80;3.15;;;8.50;56.00;;;;;;4772716;30;20051;-74
2022/04/28 01:13:31;;;;;;;6.50;3.95;;;8.50;56.10;;;;;;4772489;30;20445;-73
2022/04/28 01:15:57;;;;;;;6.22;3.35;;;8.50;56.20;;;;;;4772249;30;20052;-73
2022/04/28 01:18:22;;;;;;;6.78;3.35;;;8.50;56.30;;;;;;4772307;30;20617;-73
2022/04/28 01:20:48;;;;;;;8.52;4.03;;;8.40;56.30;;;;;;4771253;30;20457;-73
2022/04/28 01:23:14;;;;;;;6.65;3.17;;;8.40;56.40;;;;;;4772425;30;20043;-73
2022/04/28 01:25:40;;;;;;;4.63;3.20;;;8.40;56.40;;;;;;4771654;30;20062;-73
2022/04/28 01:28:06;;;;;;;5.57;3.00;;;8.40;56.50;;;;;;4770405;30;20109;-73
2022/04/28 01:30:33;;;;;;;6.03;3.22;;;8.30;56.60;;;;;;4771408;30;20085;-73
2022/04/28 01:33:00;;;;;;;4.70;2.60;;;8.30;56.70;;;;;;4771323;30;20086;-73
2022/04/28 01:35:26;;;;;;;6.57;3.28;;;8.30;56.80;;;;;;4771476;30;20110;-74
2022/04/28 01:37:54;;;;;;;7.05;3.65;;;8.30;56.90;;;;;;4770073;30;20056;-73
2022/04/28 01:40:21;;;;;;;6.57;2.97;;;8.30;56.90;;;;;;4771213;30;20047;-73
2022/04/28 01:42:48;;;;;;;6.43;3.33;;;8.30;57.00;;;;;;4769929;30;20511;-73
2022/04/28 01:45:14;;;;;;;5.78;3.00;;;8.30;57.40;;;;;;4771008;30;20063;-74
2022/04/28 01:47:40;;;;;;;7.05;2.90;;;8.30;57.10;;;;;;4769728;30;20067;-74
2022/04/28 01:50:10;;;;;;;8.23;3.00;;;8.30;57.10;;;;;;4770888;30;20389;-73
2022/04/28 01:55:21;;;;;;;;;;;8.30;57.30;;;;;;4771482;30;20405;-73
2022/04/28 01:57:47;;;;;;;6.32;3.50;;;8.30;56.90;;;;;;4771029;30;19926;-74
2022/04/28 02:00:14;;;;;;;6.53;3.15;;;8.30;57.20;;;;;;4770779;30;20044;-74
2022/04/28 02:02:40;;;;;;;6.28;3.35;;;8.30;57.40;;;;;;4771079;30;20044;-73
2022/04/28 02:05:07;;;;;;;4.78;3.22;;;8.20;57.30;;;;;;4770912;30;20052;-73
2022/04/28 02:07:33;;;;;;;7.60;3.50;;;8.30;57.50;;;;;;4771091;30;20560;-74
2022/04/28 02:10:00;;;;;;;5.30;3.30;;;8.30;57.80;;;;;;4770886;30;20043;-73
2022/04/28 02:12:26;;;;;;;7.00;3.38;;;8.30;57.60;;;;;;4769533;30;20040;-74
2022/04/28 02:14:53;;;;;;;5.95;3.38;;;8.30;57.70;;;;;;4770613;30;20062;-74
2022/04/28 02:17:26;;;;;;;7.10;3.70;;;8.30;57.70;;;;;;4770538;30;20079;-74
2022/04/28 02:19:53;;;;;;;4.97;3.10;;;8.30;57.90;;;;;;4769612;30;20135;-74
2022/04/28 02:22:19;;;;;;;5.85;3.75;;;8.30;57.90;;;;;;4770055;30;20495;-74
2022/04/28 02:24:45;;;;;;;8.57;3.83;;;8.20;58.00;;;;;;4729429;30;1250641;-74
2022/04/28 02:27:11;;;;;;;8.27;5.40;;;8.20;58.10;;;;;;4771311;30;20139;-74
2022/04/28 02:29:37;;;;;;;7.55;4.28;;;8.20;58.30;;;;;;4771171;30;20185;-74
2022/04/28 02:32:03;;;;;;;5.57;2.95;;;8.20;58.40;;;;;;4771424;30;20163;-74
2022/04/28 02:34:29;;;;;;;4.70;3.15;;;8.20;58.40;;;;;;4771349;30;20043;-74
2022/04/28 02:36:56;;;;;;;4.93;3.03;;;8.20;58.50;;;;;;4771277;30;20129;-74
2022/04/28 02:39:22;;;;;;;6.43;3.40;;;8.10;58.50;;;;;;4769836;30;20370;-74
2022/04/28 02:41:48;;;;;;;4.50;3.28;;;8.20;58.60;;;;;;4771092;30;20093;-74
2022/04/28 02:44:14;;;;;;;4.65;3.15;;;8.30;58.70;;;;;;4770280;30;20081;-74
2022/04/28 02:46:45;;;;;;;7.93;3.85;;;8.20;58.60;;;;;;4770947;30;20060;-74
2022/04/28 02:49:12;;;;;;;6.88;3.72;;;8.20;58.70;;;;;;4771181;30;20075;-74
2022/04/28 02:51:39;;;;;;;6.93;3.95;;;8.20;58.80;;;;;;4769708;30;20058;-74
2022/04/28 02:54:05;;;;;;;6.55;3.72;;;8.20;58.80;;;;;;4771026;30;20056;-74
2022/04/28 02:56:31;;;;;;;7.75;3.80;;;8.30;58.90;;;;;;4769676;30;20105;-74
2022/04/28 02:58:56;;;;;;;5.75;3.00;;;8.20;59.00;;;;;;4769644;30;20047;-74
2022/04/28 03:01:23;;;;;;;5.18;3.67;;;8.30;58.90;;;;;;4770196;30;20054;-74
2022/04/28 03:03:49;;;;;;;6.50;4.00;;;8.30;58.90;;;;;;4770859;30;20444;-74
2022/04/28 03:11:48;;;;;;;6.10;3.28;;;8.30;58.90;;;;;;4770931;30;20051;-74
2022/04/28 03:14:14;;;;;;;7.85;3.60;;;8.40;58.90;;;;;;4771113;30;20105;-74
2022/04/28 03:16:39;;;;;;;5.55;3.33;;;8.40;58.90;;;;;;4771614;30;20404;-74
2022/04/28 03:19:05;;;;;;;6.00;2.97;;;8.40;58.90;;;;;;4771342;30;20123;-74
2022/04/28 03:21:31;;;;;;;6.03;3.20;;;8.40;58.90;;;;;;4771395;30;20044;-74
2022/04/28 03:23:57;;;;;;;4.38;3.67;;;8.50;58.90;;;;;;4763388;30;20056;-73
2022/04/28 03:26:23;;;;;;;7.18;3.30;;;8.50;59.00;;;;;;4752868;30;20235;-73
2022/04/28 03:28:48;;;;;;;7.57;4.00;;;8.50;59.10;;;;;;4753139;30;20055;-74
2022/04/28 03:31:14;;;;;;;5.55;3.05;;;8.50;59.10;;;;;;4751964;30;20056;-74
2022/04/28 03:33:40;;;;;;;6.20;3.17;;;8.50;59.20;;;;;;4752794;30;20044;-74
2022/04/28 03:38:50;;;;;;;5.13;2.97;;;8.50;59.10;;;;;;4766475;30;20052;-74
2022/04/28 03:41:16;;;;;;;6.15;3.47;;;8.50;59.00;;;;;;4752723;30;20519;-74
2022/04/28 03:43:41;;;;;;;6.20;3.35;;;8.50;58.90;;;;;;4751590;30;20056;-74
2022/04/28 03:46:07;;;;;;;5.43;3.17;;;8.60;59.30;;;;;;4767095;30;20096;-74
2022/04/28 03:48:32;;;;;;;4.47;3.08;;;8.60;59.00;;;;;;4769547;30;20382;-74
2022/04/28 03:50:58;;;;;;;4.40;2.90;;;8.60;58.90;;;;;;4784212;29;20059;-74
2022/04/28 03:53:24;;;;;;;5.25;3.35;;;8.80;59.00;;;;;;4773812;30;20107;-74
2022/04/28 03:55:50;;;;;;;5.28;3.65;;;8.70;59.00;;;;;;4772864;30;20453;-74
2022/04/28 03:58:16;;;;;;;7.43;3.35;;;8.70;59.00;;;;;;4773304;30;20048;-75
2022/04/28 04:00:48;;;;;;;5.30;2.92;;;8.70;58.90;;;;;;4772478;30;20058;-75
2022/04/28 04:03:14;;;;;;;5.85;3.15;;;8.70;59.00;;;;;;4772403;30;20051;-72
2022/04/28 04:05:40;;;;;;;6.47;3.17;;;8.70;58.90;;;;;;4772347;30;20052;-73
2022/04/28 04:08:05;;;;;;;7.22;3.53;;;8.70;58.90;;;;;;4773275;30;20243;-74
2022/04/28 04:10:31;;;;;;;6.55;3.40;;;8.70;58.80;;;;;;4755803;30;20048;-74
2022/04/28 04:12:57;;;;;;;6.90;3.38;;;8.80;58.90;;;;;;4755572;30;20052;-74
2022/04/28 04:15:23;;;;;;;6.90;3.40;;;8.80;58.90;;;;;;4755737;30;20049;-73
2022/04/28 04:17:48;;;;;;;5.20;3.10;;;8.80;58.90;;;;;;4755426;30;20127;-73
2022/04/28 04:20:15;;;;;;;4.78;3.17;;;8.80;58.80;;;;;;4755909;30;20489;-74
2022/04/28 04:22:42;;;;;;;10.35;3.63;;;8.80;58.80;;;;;;4773318;30;20047;-73
2022/04/28 04:25:08;;;;;;;6.13;3.00;;;8.80;58.80;;;;;;4772916;30;20135;-73
2022/04/28 04:27:34;;;;;;;5.78;3.15;;;8.90;58.70;;;;;;4772187;30;20083;-74
2022/04/28 04:29:59;;;;;;;6.88;3.83;;;8.90;58.70;;;;;;4772023;30;20524;-73
2022/04/28 04:32:25;;;;;;;6.90;3.58;;;8.90;58.70;;;;;;4772061;30;20044;-74
2022/04/28 04:34:53;;;;;;;5.05;3.28;;;8.90;58.80;;;;;;4773267;30;20127;-73
2022/04/28 04:37:19;;;;;;;6.43;3.35;;;8.90;58.70;;;;;;4773252;30;20043;-73
2022/04/28 04:39:44;;;;;;;8.15;4.05;;;8.90;58.60;;;;;;4786436;30;20091;-74
2022/04/28 04:42:11;;;;;;;8.32;3.83;;;8.90;58.60;;;;;;4771876;30;20098;-75
2022/04/28 04:44:37;;;;;;;9.48;3.50;;;8.90;58.60;;;;;;4773076;30;20089;-74
2022/04/28 04:47:03;;;;;;;8.30;3.55;;;8.90;58.60;;;;;;4772994;30;20047;-74
2022/04/28 04:49:29;;;;;;;7.95;4.10;;;9.00;58.80;;;;;;4773299;30;20075;-74
2022/04/28 04:51:55;;;;;;;5.90;3.75;;;9.00;58.90;;;;;;4771865;30;20106;-74
2022/04/28 04:54:21;;;;;;;6.28;3.13;;;9.00;58.80;;;;;;4771641;30;20060;-72
2022/04/28 04:56:47;;;;;;;9.45;4.60;;;9.00;58.70;;;;;;4766567;30;20060;-73
2022/04/28 04:59:12;;;;;;;7.30;3.42;;;9.00;58.70;;;;;;4755114;30;20065;-73
2022/04/28 05:01:38;;;;;;;6.22;3.58;;;9.00;58.70;;;;;;4753590;30;20139;-73
2022/04/28 05:04:04;;;;;;;7.03;3.30;;;9.10;58.80;;;;;;4754813;30;20048;-73
2022/04/28 05:06:30;;;;;;;5.72;3.22;;;9.10;58.80;;;;;;4772084;30;20059;-74
2022/04/28 05:08:56;;;;;;;5.50;3.05;;;9.00;58.80;;;;;;4772859;30;20413;-75
2022/04/28 05:11:22;;;;;;;5.53;3.30;;;9.10;58.90;;;;;;4772529;30;20047;-74
2022/04/28 05:13:48;;;;;;;5.20;3.72;;;9.10;58.90;;;;;;4772710;30;20048;-74
2022/04/28 05:16:14;;;;;;;5.60;3.00;;;9.10;58.90;;;;;;4785786;30;20059;-73
2022/04/28 05:18:40;;;;;;;6.68;3.40;;;9.10;59.00;;;;;;4770889;30;20060;-74
2022/04/28 05:21:05;;;;;;;9.32;4.15;;;9.20;59.00;;;;;;4772484;30;20081;-74
2022/04/28 05:23:31;;;;;;;7.68;3.30;;;9.20;59.10;;;;;;4772279;30;20524;-74
2022/04/28 05:25:57;;;;;;;7.30;3.95;;;9.20;59.20;;;;;;4772056;30;20531;-74
2022/04/28 05:28:28;;;;;;;7.28;3.42;;;9.20;59.20;;;;;;4771304;30;20558;-74
2022/04/28 05:30:57;;;;;;;9.10;3.55;;;9.30;59.30;;;;;;4772406;30;20088;-74
2022/04/28 05:33:23;;;;;;;7.68;3.65;;;9.30;59.30;;;;;;4771557;30;20055;-74
2022/04/28 05:35:49;;;;;;;7.20;3.75;;;9.30;59.40;;;;;;4771127;30;20048;-72
2022/04/28 05:38:15;;;;;;;7.68;4.15;;;9.40;59.70;;;;;;4763606;30;20056;-73
2022/04/28 05:40:42;;;;;;;8.00;5.47;;;9.40;59.70;;;;;;4754206;30;20048;-73
2022/04/28 05:45:54;;;;;;;8.43;4.10;;;9.40;60.00;;;;;;4752968;30;20410;-74
2022/04/28 05:48:20;;;;;;;8.98;4.75;;;9.50;60.00;;;;;;4755185;30;20052;-73
2022/04/28 05:50:46;;;;;;;5.90;3.53;;;9.50;59.90;;;;;;4771797;30;20051;-73
2022/04/28 05:53:12;;;;;;;7.55;4.38;;;9.50;60.00;;;;;;4770930;30;20562;-73
2022/04/28 05:55:38;;;;;;;6.47;4.35;;;9.60;59.90;;;;;;4771685;30;20130;-73
2022/04/28 05:58:04;;;;;;;11.02;4.57;;;9.60;59.80;;;;;;4771662;30;20051;-73
2022/04/28 06:00:31;;;;;;;8.88;3.92;;;9.60;59.60;;;;;;4771311;30;20044;-73
2022/04/28 06:02:58;;;;;;;9.27;4.20;;;9.60;59.50;;;;;;4771670;30;20055;-73
2022/04/28 06:05:24;;;;;;;7.88;3.70;;;9.60;59.40;;;;;;4753391;30;20406;-74
2022/04/28 06:07:50;;;;;;;9.45;4.10;;;9.70;59.30;;;;;;4753915;30;20444;-74
2022/04/28 06:10:15;;;;;;;7.60;3.78;;;9.70;59.30;;;;;;4752287;30;20056;-73
2022/04/28 06:12:41;;;;;;;14.10;4.53;;;9.80;59.50;;;;;;4753841;30;20386;-75
2022/04/28 06:15:08;;;;;;;6.43;3.70;;;9.80;59.30;;;;;;4767506;30;20052;-80
2022/04/28 06:17:34;;;;;;;6.57;4.10;;;9.80;59.20;;;;;;4770059;30;20067;-75
2022/04/28 06:19:59;;;;;;;10.15;4.47;;;9.80;59.20;;;;;;4770736;30;20044;-74
2022/04/28 06:22:25;;;;;;;8.00;4.78;;;9.90;59.40;;;;;;4771277;30;20051;-74
2022/04/28 06:24:52;;;;;;;7.63;3.80;;;9.90;59.50;;;;;;4756842;30;20075;-72
2022/04/28 06:27:18;;;;;;;7.13;3.83;;;9.90;59.50;;;;;;4753437;30;20052;-73
2022/04/28 06:29:44;;;;;;;10.80;4.18;;;10.00;59.50;;;;;;4752414;30;20143;-73
2022/04/28 06:32:10;;;;;;;9.60;3.80;;;10.00;59.60;;;;;;4752413;30;20581;-73
2022/04/28 06:34:36;;;;;;;6.97;3.75;;;10.00;59.70;;;;;;4763955;30;20058;-74
2022/04/28 06:37:02;;;;;;;4.75;3.38;;;10.00;59.70;;;;;;4771138;30;20055;-73
2022/04/28 06:39:28;;;;;;;5.68;3.85;;;10.00;59.60;;;;;;4770243;30;20063;-74
2022/04/28 06:41:53;;;;;;;9.00;4.38;;;10.10;59.60;;;;;;4771003;30;20108;-74
2022/04/28 06:44:19;;;;;;;9.93;4.20;;;10.10;59.50;;;;;;4770593;30;20181;-74
2022/04/28 06:46:44;;;;;;;8.00;4.20;;;10.10;59.20;;;;;;4770715;30;20065;-74
2022/04/28 06:49:10;;;;;;;8.38;4.45;;;10.20;59.10;;;;;;4761422;30;20063;-75
2022/04/28 06:51:36;;;;;;;9.05;4.75;;;10.20;58.90;;;;;;4751861;30;20088;-73
2022/04/28 06:54:02;;;;;;;6.93;4.35;;;10.30;58.60;;;;;;4759383;30;20123;-73
2022/04/28 06:56:29;;;;;;;12.25;4.20;;;10.30;58.60;;;;;;4770604;30;20048;-73
2022/04/28 06:58:55;;;;;;;8.73;4.30;;;10.10;58.50;;;;;;4770010;30;20060;-73
2022/04/28 07:01:21;;;;;;;9.57;3.88;;;10.20;58.40;;;;;;4769552;30;20435;-73
2022/04/28 07:03:46;;;;;;;6.50;3.55;;;10.30;58.60;;;;;;4770195;30;20068;-73
2022/04/28 07:06:12;;;;;;;8.30;4.22;;;10.30;58.50;;;;;;4770771;30;20079;-73
2022/04/28 07:08:38;;;;;;;9.35;4.50;;;10.30;58.70;;;;;;4770332;30;20511;-73
2022/04/28 07:11:03;;;;;;;9.70;4.00;;;10.40;58.70;;;;;;4770512;30;20408;-73
2022/04/28 07:13:29;;;;;;;7.55;3.60;;;10.40;58.70;;;;;;4770183;30;20524;-74
2022/04/28 07:15:55;;;;;;;9.68;4.03;;;10.40;58.60;;;;;;4770557;30;20052;-73
2022/04/28 07:18:20;;;;;;;11.20;4.22;;;10.40;58.50;;;;;;4769729;30;20051;-74
2022/04/28 07:20:46;;;;;;;7.50;4.43;;;10.50;58.80;;;;;;4769222;30;20093;-74
2022/04/28 07:23:12;;;;;;;11.38;4.68;;;10.50;58.80;;;;;;4769768;30;20052;-74
2022/04/28 07:25:39;;;;;;;6.72;3.58;;;10.60;59.00;;;;;;4770499;30;20059;-75
2022/04/28 07:28:05;;;;;;;8.23;3.85;;;10.70;59.20;;;;;;4774122;30;20062;-73
2022/04/28 07:30:31;;;;;;;11.65;4.00;;;10.60;59.10;;;;;;4756623;30;20060;-74
2022/04/28 07:32:57;;;;;;;10.32;4.40;;;10.70;59.20;;;;;;4755347;30;20086;-76
2022/04/28 07:35:25;;;;;;;8.98;3.90;;;10.70;58.90;;;;;;4755132;30;20059;-75
2022/04/28 07:37:51;;;;;;;9.30;3.92;;;10.70;59.10;;;;;;4756302;30;20078;-75
2022/04/28 07:40:17;;;;;;;11.25;4.78;;;10.70;59.30;;;;;;4755263;30;20056;-75
2022/04/28 07:42:43;;;;;;;11.75;4.70;;;10.70;59.40;;;;;;4755980;30;20060;-75
2022/04/28 07:45:10;;;;;;;10.57;3.58;;;10.80;59.40;;;;;;4755840;30;20052;-75
2022/04/28 07:47:35;;;;;;;9.63;3.25;;;10.80;59.20;;;;;;4756812;30;20044;-76
2022/04/28 07:50:01;;;;;;;10.75;3.90;;;10.90;59.30;;;;;;4757106;30;20063;-76
2022/04/28 07:52:27;;;;;;;12.32;3.85;;;10.90;59.20;;;;;;4757565;30;20056;-75
2022/04/28 07:54:52;;;;;;;8.73;3.72;;;10.90;59.20;;;;;;4756058;30;20056;-75
2022/04/28 07:57:22;;;;;;;10.10;4.05;;;11.00;59.20;;;;;;4754639;30;20062;-75
2022/04/28 07:59:49;;;;;;;12.77;4.18;;;11.10;59.20;;;;;;4754702;30;20056;-74
2022/04/28 08:02:15;;;;;;;12.45;4.00;;;11.10;59.40;;;;;;4755843;30;20059;-75
2022/04/28 08:04:41;;;;;;;10.10;3.75;;;11.10;59.30;;;;;;4755681;30;20139;-74
2022/04/28 08:07:07;;;;;;;8.30;3.10;;;11.20;58.80;;;;;;4769219;30;20084;-73
2022/04/28 08:09:33;;;;;;;11.45;4.15;;;11.20;58.40;;;;;;4755630;30;20207;-75
2022/04/28 08:11:58;;;;;;;11.48;4.05;;;11.20;58.30;;;;;;4755565;30;20048;-76
2022/04/28 08:14:25;;;;;;;7.88;3.25;;;11.30;58.50;;;;;;4755537;30;20059;-74
2022/04/28 08:16:51;;;;;;;9.00;3.47;;;11.30;58.20;;;;;;4755366;30;20539;-74
2022/04/28 08:19:19;;;;;;;9.20;3.20;;;11.30;58.20;;;;;;4755608;30;20063;-74
2022/04/28 08:21:45;;;;;;;7.45;3.15;;;11.30;58.40;;;;;;4755429;30;20520;-75
2022/04/28 08:24:11;;;;;;;7.50;2.90;;;11.40;58.40;;;;;;4755572;30;20052;-76
2022/04/28 08:26:36;;;;;;;7.45;2.92;;;11.40;58.20;;;;;;4754140;30;20102;-76
2022/04/28 08:29:02;;;;;;;9.88;3.30;;;11.50;58.30;;;;;;4754444;30;20059;-76
2022/04/28 08:31:28;;;;;;;11.75;3.30;;;11.50;58.10;;;;;;4755310;30;20490;-76
2022/04/28 08:33:54;;;;;;;7.57;2.90;;;11.70;57.90;;;;;;4754039;30;20066;-76
2022/04/28 08:36:20;;;;;;;19.02;5.25;;;11.70;57.70;;;;;;4755152;30;20160;-75
2022/04/28 08:38:46;;;;;;;8.38;3.45;;;11.70;57.50;;;;;;4753837;30;20052;-76
2022/04/28 08:41:15;;;;;;;7.30;2.78;;;11.80;57.50;;;;;;4755241;30;20058;-75
2022/04/28 08:43:42;;;;;;;6.28;2.58;;;11.90;57.30;;;;;;4755065;30;20453;-73
2022/04/28 08:48:55;;;;;;;7.43;3.03;;;12.00;57.20;;;;;;4755160;30;20067;-74
2022/04/28 08:51:24;;;;;;;5.70;2.28;;;12.00;56.80;;;;;;4754162;30;20405;-74
2022/04/28 08:53:51;;;;;;;6.93;2.58;;;12.10;56.70;;;;;;4753943;30;20060;-74
2022/04/28 08:56:18;;;;;;;5.40;2.22;;;12.10;56.60;;;;;;4753885;30;20147;-74
2022/04/28 08:58:44;;;;;;;6.55;2.22;;;12.10;56.30;;;;;;4753675;30;20425;-74
2022/04/28 09:01:09;;;;;;;9.15;2.65;;;12.20;56.20;;;;;;4755038;30;20044;-74
2022/04/28 09:03:35;;;;;;;8.73;2.72;;;12.20;56.30;;;;;;4754785;30;20056;-74
2022/04/28 09:06:21;;;;;;;9.02;2.03;;;12.30;56.30;;;;;;4754809;30;20134;-74
2022/04/28 09:08:48;;;;;;;8.75;2.88;;;12.30;55.30;;;;;;4768420;30;20044;-74
2022/04/28 09:11:22;;;;;;;5.93;2.35;;;12.50;54.90;;;;;;4754742;30;20060;-75
2022/04/28 09:14:11;;;;;;;6.82;2.25;;;12.40;54.80;;;;;;4754894;30;20082;-74
2022/04/28 09:16:56;;;;;;;8.57;2.78;;;12.40;54.70;;;;;;4753605;30;20044;-74
2022/04/28 09:19:25;;;;;;;;;;;12.40;54.60;;;;;;4754125;30;20064;-77
2022/04/28 09:21:53;;;;;;;8.02;2.33;;;12.40;54.80;;;;;;4753661;30;20268;-80
2022/04/28 09:24:20;;;;;;;8.43;2.80;;;12.50;55.00;;;;;;4753295;30;20074;-80
2022/04/28 09:26:51;;;;;;;4.93;2.00;;;12.50;55.00;;;;;;4768041;30;20105;-83
2022/04/28 09:29:18;;;;;;;6.40;2.60;;;12.60;55.00;;;;;;4754455;30;20481;-82
2022/04/28 09:31:45;;;;;;;6.22;2.50;;;12.80;55.00;;;;;;4755426;30;20084;-81
2022/04/28 09:34:12;;;;;;;8.48;2.60;;;12.80;54.20;;;;;;4755069;30;20133;-82
2022/04/28 09:36:39;;;;;;;8.02;2.63;;;12.80;54.20;;;;;;4753220;30;20063;-82
2022/04/28 09:39:16;;;;;;;9.43;3.10;;;12.90;53.80;;;;;;4753281;30;20494;-85
2022/04/28 09:44:44;;;;;;;9.30;3.83;;;13.10;53.80;;;;;;4767528;30;20063;-83
2022/04/28 09:47:10;;;;;;;7.60;2.75;;;13.10;54.40;;;;;;4754781;30;20048;-86
2022/04/28 09:49:36;;;;;;;4.57;2.30;;;13.20;54.60;;;;;;4767175;30;20416;-83
2022/04/28 09:52:02;;;;;;;11.98;3.08;;;13.40;54.50;;;;;;4752732;30;20539;-82
2022/04/28 09:54:31;;;;;;;7.78;2.40;;;13.50;54.30;;;;;;4752238;30;20056;-82
2022/04/28 09:56:58;;;;;;;14.05;4.03;;;13.60;54.10;;;;;;4752527;30;20052;-81
2022/04/28 09:59:27;;;;;;;7.95;2.40;;;13.70;54.20;;;;;;4753995;30;20135;-81
2022/04/28 10:01:53;;;;;;;5.80;3.17;;;13.80;53.50;;;;;;4753802;30;20048;-78
2022/04/28 10:04:19;;;;;;;8.60;2.60;;;14.00;53.80;;;;;;4752491;30;20192;-81
2022/04/28 10:06:45;;;;;;;4.70;2.15;;;14.00;54.00;;;;;;4753920;30;20404;-80
2022/04/28 10:09:12;;;;;;;7.93;2.33;;;14.20;53.30;;;;;;4753203;30;20524;-79
2022/04/28 10:11:38;;;;;;;5.13;2.20;;;14.30;51.90;;;;;;4752441;30;20054;-79
2022/04/28 10:14:06;;;;;;;4.68;2.17;;;14.30;51.60;;;;;;4753690;30;20501;-79
2022/04/28 10:16:32;;;;;;;5.38;1.90;;;14.30;51.80;;;;;;4753695;30;20055;-79
2022/04/28 10:19:14;;;;;;;8.07;2.20;;;14.40;52.10;;;;;;4752433;30;20055;-79
2022/04/28 10:22:02;;;;;;;11.38;2.00;;;14.50;52.00;;;;;;5071042;27;20905;-80
2022/04/28 10:32:55;;;;;;;9.98;2.28;;;14.80;51.00;;;;;;5071123;28;20053;-83
2022/04/28 10:35:49;;;;;;;5.28;1.58;;;14.80;50.70;;;;;;5069968;28;20505;-83
2022/04/28 10:38:34;;;;;;;6.22;2.10;;;14.90;50.80;;;;;;5069641;28;20132;-81
2022/04/28 10:41:02;;;;;;;;;;;15.00;50.90;;;;;;5071492;28;20048;-82
2022/04/28 10:43:36;;;;;;;9.82;2.20;;;15.00;51.00;;;;;;5070041;28;19920;-81
2022/04/28 10:46:27;;;;;;;8.77;2.28;;;15.00;50.50;;;;;;5070945;28;20482;-80
2022/04/28 10:49:01;;;;;;;7.90;2.30;;;15.10;50.50;;;;;;5031824;28;20049;-81
2022/04/28 10:51:31;;;;;;;8.63;3.35;;;15.10;50.00;;;;;;5048547;28;20092;-81
2022/04/28 10:54:09;;;;;;;6.40;2.45;;;15.20;50.20;;;;;;5048615;28;20424;-82
2022/04/28 10:56:50;;;;;;;6.53;2.47;;;15.20;50.80;;;;;;5048515;28;20053;-80
2022/04/28 10:59:34;;;;;;;6.95;2.45;;;15.30;50.10;;;;;;5048245;28;20575;-82
2022/04/28 11:02:13;;;;;;;7.40;2.35;;;15.30;49.30;;;;;;5031622;28;20470;-81
2022/04/28 11:04:40;;;;;;;6.68;1.67;;;15.30;49.10;;;;;;5031870;28;20136;-81
2022/04/28 11:07:09;;;;;;;7.07;2.28;;;15.40;49.70;;;;;;5031786;28;20455;-81
2022/04/28 11:09:40;;;;;;;7.78;2.58;;;15.40;49.60;;;;;;5048256;28;20492;-81
2022/04/28 11:12:18;;;;;;;7.35;2.58;;;15.50;50.10;;;;;;5048181;28;20648;-82
2022/04/28 11:14:43;;;;;;;5.80;2.10;;;15.60;50.30;;;;;;5031670;28;20063;-81
2022/04/28 11:17:13;;;;;;;5.95;2.13;;;15.60;49.60;;;;;;5026678;28;20136;-80
2022/04/28 11:19:40;;;;;;;5.97;2.45;;;15.60;49.40;;;;;;5024763;28;20401;-80
2022/04/28 11:22:06;;;;;;;8.88;2.70;;;15.70;49.30;;;;;;5007960;28;20462;-80
2022/04/28 11:24:32;;;;;;;6.57;1.80;;;15.80;49.10;;;;;;5028129;28;20093;-81
2022/04/28 11:27:01;;;;;;;9.70;2.92;;;15.90;49.40;;;;;;5030049;28;20128;-80
2022/04/28 11:29:31;;;;;;;7.53;2.10;;;15.90;49.50;;;;;;5048556;28;20107;-80
2022/04/28 11:31:59;;;;;;;7.00;2.30;;;15.90;49.40;;;;;;5043273;28;20045;-79
2022/04/28 11:34:28;;;;;;;8.25;2.83;;;16.00;49.50;;;;;;5035605;28;20413;-80
2022/04/28 11:36:53;;;;;;;13.30;2.90;;;16.00;49.30;;;;;;5036567;28;20384;-80
2022/04/28 11:39:23;;;;;;;10.77;2.83;;;16.10;49.00;;;;;;5036527;28;20041;-82
2022/04/28 11:41:52;;;;;;;6.72;2.47;;;16.20;48.70;;;;;;5036338;28;20060;-81
2022/04/28 11:44:19;;;;;;;9.52;3.03;;;16.20;48.90;;;;;;5036250;28;20087;-81
2022/04/28 11:46:44;;;;;;;6.35;2.50;;;16.30;48.80;;;;;;5034974;28;20053;-82
2022/04/28 11:49:10;;;;;;;9.50;2.38;;;16.30;49.10;;;;;;5036333;28;20075;-82
2022/04/28 11:51:36;;;;;;;8.57;2.30;;;16.40;48.20;;;;;;5035973;28;20053;-80
2022/04/28 11:54:04;;;;;;;6.97;2.60;;;16.40;47.70;;;;;;5034696;28;20038;-81
2022/04/28 11:56:31;;;;;;;6.78;2.30;;;16.40;47.70;;;;;;5036038;28;20081;-82
2022/04/28 11:59:00;;;;;;;8.25;2.67;;;16.40;47.70;;;;;;5034741;28;20603;-82
2022/04/28 12:01:30;;;;;;;6.50;2.65;;;16.50;48.00;;;;;;5034813;28;20041;-81
2022/04/28 12:03:57;;;;;;;7.20;3.13;;;16.50;48.10;;;;;;5036033;28;20057;-81
2022/04/28 12:06:24;;;;;;;11.02;2.60;;;16.50;47.80;;;;;;5035950;28;20391;-80
2022/04/28 12:08:58;;;;;;;9.15;3.53;;;16.50;47.10;;;;;;5068321;28;20381;-80
2022/04/28 12:14:24;;;;;;;7.78;2.67;;;16.50;47.30;;;;;;5034476;28;20085;-81
2022/04/28 12:19:47;;;;;;;9.05;3.35;;;16.70;47.80;;;;;;5035383;28;20041;-79
2022/04/28 12:22:14;;;;;;;6.90;3.15;;;16.80;47.70;;;;;;5067544;28;20056;-82
2022/04/28 12:24:42;;;;;;;8.52;3.53;;;16.80;47.40;;;;;;5067790;28;20060;-82
2022/04/28 12:27:07;;;;;;;11.77;3.20;;;16.90;47.90;;;;;;5034094;28;20129;-81
2022/04/28 12:29:58;;;;;;;12.60;3.58;;;17.00;47.00;;;;;;5035169;28;20124;-82
2022/04/28 12:32:24;;;;;;;7.90;3.40;;;17.00;47.20;;;;;;5049570;28;20555;-78
2022/04/28 12:35:01;;;;;;;6.80;3.10;;;17.00;47.60;;;;;;5033581;28;20049;-79
2022/04/28 12:37:28;;;;;;;8.38;3.30;;;17.00;46.80;;;;;;5034035;28;20488;-79
2022/04/28 12:39:56;;;;;;;9.90;3.10;;;17.00;46.90;;;;;;5049936;28;20480;-81
2022/04/28 12:42:21;;;;;;;8.80;3.22;;;17.00;46.70;;;;;;5050370;28;20091;-84
2022/04/28 12:44:47;;;;;;;12.63;3.78;;;17.00;46.70;;;;;;5016996;28;20081;-84
2022/04/28 12:47:14;;;;;;;28.92;16.35;;;17.00;46.70;;;;;;5009811;28;20568;-83
2022/04/28 12:49:48;;;;;;;8.90;3.38;;;16.90;47.20;;;;;;5015321;28;20062;-84
2022/04/28 12:52:27;;;;;;;9.07;3.85;;;17.00;46.70;;;;;;5013266;28;20049;-82
2022/04/28 12:55:01;;;;;;;7.25;3.25;;;17.00;46.20;;;;;;5013092;28;20121;-81
2022/04/28 12:57:30;;;;;;;8.48;3.53;;;16.90;46.50;;;;;;5012959;28;20049;-74
2022/04/28 12:59:59;;;;;;;9.82;3.35;;;17.00;46.50;;;;;;5012989;28;20058;-77
2022/04/28 13:02:30;;;;;;;7.68;2.97;;;17.00;45.90;;;;;;5012901;28;20588;-79
2022/04/28 13:05:12;;;;;;;7.15;3.08;;;16.90;46.10;;;;;;5012840;28;20123;-79
2022/04/28 13:07:39;;;;;;;13.02;3.55;;;16.90;46.20;;;;;;4996431;28;20374;-77
2022/04/28 13:10:05;;;;;;;8.15;2.33;;;16.90;47.10;;;;;;5014640;28;20125;-77
2022/04/28 13:12:31;;;;;;;7.97;3.03;;;17.00;46.40;;;;;;5013900;28;20057;-78
2022/04/28 13:14:58;;;;;;;9.98;3.35;;;16.90;45.70;;;;;;5014785;28;20389;-89
2022/04/28 13:17:24;;;;;;;9.43;3.20;;;16.90;45.30;;;;;;5013576;28;20042;-77
2022/04/28 13:19:50;;;;;;;9.88;3.10;;;16.90;45.20;;;;;;5014409;28;20124;-79
2022/04/28 13:22:16;;;;;;;9.57;2.67;;;16.80;45.90;;;;;;5013372;28;20172;-81
2022/04/28 13:24:42;;;;;;;8.65;2.80;;;16.80;46.70;;;;;;5014827;28;20371;-79
2022/04/28 13:27:07;;;;;;;8.23;2.55;;;16.80;46.50;;;;;;5014776;28;20076;-80